createdAt,value
2019-03-30T00:01:58.652Z,5.00
2019-03-30T00:04:29.995Z,5.00
2019-03-30T00:07:01.166Z,5.00
2019-03-30T00:09:32.427Z,5.00
2019-03-30T00:12:03.790Z,4.90
2019-03-30T00:14:35.163Z,5.00
2019-03-30T00:17:06.432Z,4.90
2019-03-30T00:19:37.633Z,4.90
2019-03-30T00:22:08.958Z,4.90
2019-03-30T00:24:40.127Z,4.90
2019-03-30T00:27:11.542Z,4.80
2019-03-30T00:29:42.931Z,4.80
2019-03-30T00:32:14.151Z,4.80
2019-03-30T00:34:45.654Z,4.70
2019-03-30T00:37:16.900Z,4.60
2019-03-30T00:39:48.383Z,4.50
2019-03-30T00:42:19.643Z,4.40
2019-03-30T00:44:50.974Z,4.40
2019-03-30T00:47:22.289Z,4.30
2019-03-30T00:49:53.728Z,4.30
2019-03-30T00:52:24.835Z,4.30
2019-03-30T00:54:55.987Z,4.30
2019-03-30T00:57:27.408Z,4.20
2019-03-30T00:59:58.828Z,4.20
2019-03-30T01:02:30.086Z,4.20
2019-03-30T01:05:01.482Z,4.20
2019-03-30T01:07:32.988Z,4.20
2019-03-30T01:10:04.421Z,4.20
2019-03-30T01:12:35.536Z,4.10
2019-03-30T01:15:08.616Z,4.10
2019-03-30T01:17:39.902Z,4.10
2019-03-30T01:20:11.242Z,4.10
2019-03-30T01:22:42.489Z,4.00
2019-03-30T01:25:13.799Z,4.00
2019-03-30T01:27:44.979Z,3.90
2019-03-30T01:30:23.365Z,3.90
2019-03-30T01:32:51.256Z,3.90
2019-03-30T01:35:22.698Z,3.90
2019-03-30T01:37:53.955Z,3.90
2019-03-30T01:40:25.243Z,3.80
2019-03-30T01:42:56.581Z,3.80
2019-03-30T01:45:28.044Z,3.80
2019-03-30T01:47:59.384Z,3.80
2019-03-30T01:50:30.776Z,3.70
2019-03-30T01:53:02.057Z,3.70
2019-03-30T01:55:33.376Z,3.70
2019-03-30T01:58:04.535Z,3.60
2019-03-30T02:00:35.975Z,3.60
2019-03-30T02:03:07.431Z,3.60
2019-03-30T02:05:38.740Z,3.60
2019-03-30T02:08:09.927Z,3.60
2019-03-30T02:10:44.896Z,3.50
2019-03-30T02:13:16.405Z,3.50
2019-03-30T02:15:47.631Z,3.40
2019-03-30T02:18:19.104Z,3.40
2019-03-30T02:20:50.346Z,3.40
2019-03-30T02:23:21.563Z,3.40
2019-03-30T02:25:52.903Z,3.30
2019-03-30T02:28:24.129Z,3.30
2019-03-30T02:30:55.589Z,3.30
2019-03-30T02:33:26.902Z,3.30
2019-03-30T02:35:58.238Z,3.20
2019-03-30T02:38:29.275Z,3.20
2019-03-30T02:41:26.896Z,3.20
2019-03-30T02:43:58.225Z,3.20
2019-03-30T02:46:29.598Z,3.20
2019-03-30T02:49:00.916Z,3.20
2019-03-30T02:51:32.290Z,3.20
2019-03-30T02:54:03.501Z,3.20
2019-03-30T02:56:34.673Z,3.20
2019-03-30T02:59:05.986Z,3.20
2019-03-30T03:01:38.378Z,3.10
2019-03-30T03:04:09.694Z,3.10
2019-03-30T03:06:40.917Z,3.10
2019-03-30T03:09:12.080Z,3.10
2019-03-30T03:11:43.392Z,3.10
2019-03-30T03:14:14.583Z,3.10
2019-03-30T03:16:45.774Z,3.10
2019-03-30T03:19:16.895Z,3.20
2019-03-30T03:21:48.266Z,3.20
2019-03-30T03:24:20.686Z,3.10
2019-03-30T03:26:51.991Z,3.10
2019-03-30T03:29:23.158Z,3.20
2019-03-30T03:31:54.590Z,3.10
2019-03-30T03:34:25.998Z,3.10
2019-03-30T03:36:57.397Z,3.10
2019-03-30T03:39:28.671Z,3.10
2019-03-30T03:42:00.053Z,3.00
2019-03-30T03:44:31.245Z,3.00
2019-03-30T03:47:02.676Z,2.90
2019-03-30T03:49:33.933Z,2.90
2019-03-30T03:52:05.246Z,2.80
2019-03-30T03:54:36.539Z,2.80
2019-03-30T03:57:08.037Z,2.80
2019-03-30T03:59:39.360Z,2.70
2019-03-30T04:02:10.890Z,2.70
2019-03-30T04:04:42.028Z,2.70
2019-03-30T04:07:50.945Z,2.70
2019-03-30T04:10:22.317Z,2.70
2019-03-30T04:12:53.507Z,2.70
2019-03-30T04:15:28.184Z,2.70
2019-03-30T04:17:59.462Z,2.60
2019-03-30T04:20:30.662Z,2.60
2019-03-30T04:23:02.074Z,2.60
2019-03-30T04:25:33.287Z,2.60
2019-03-30T04:28:04.702Z,2.60
2019-03-30T04:30:35.946Z,2.60
2019-03-30T04:33:07.394Z,2.60
2019-03-30T04:35:38.644Z,2.60
2019-03-30T04:38:13.941Z,2.60
2019-03-30T04:40:42.792Z,2.60
2019-03-30T04:43:13.966Z,2.60
2019-03-30T04:45:45.382Z,2.60
2019-03-30T04:48:16.696Z,2.60
2019-03-30T04:50:47.967Z,2.60
2019-03-30T04:53:19.254Z,2.60
2019-03-30T04:55:51.386Z,2.60
2019-03-30T04:58:22.762Z,2.60
2019-03-30T05:00:54.133Z,2.60
2019-03-30T05:03:25.462Z,2.60
2019-03-30T05:05:56.779Z,2.60
2019-03-30T05:08:27.969Z,2.60
2019-03-30T05:10:59.243Z,2.60
2019-03-30T05:13:30.589Z,2.60
2019-03-30T05:16:01.861Z,2.60
2019-03-30T05:18:33.069Z,2.60
2019-03-30T05:21:04.289Z,2.60
2019-03-30T05:23:35.624Z,2.60
2019-03-30T05:26:06.947Z,2.70
2019-03-30T05:28:38.259Z,2.70
2019-03-30T05:31:09.571Z,2.70
2019-03-30T05:33:40.815Z,2.80
2019-03-30T05:36:12.001Z,2.80
2019-03-30T05:38:43.333Z,2.90
2019-03-30T05:41:14.539Z,2.90
2019-03-30T05:43:45.914Z,3.00
2019-03-30T05:46:17.201Z,3.10
2019-03-30T05:48:48.622Z,3.10
2019-03-30T05:51:19.927Z,3.30
2019-03-30T05:53:51.184Z,3.40
2019-03-30T05:56:22.496Z,3.50
2019-03-30T05:58:53.803Z,3.60
2019-03-30T06:01:25.127Z,3.70
2019-03-30T06:03:56.490Z,3.80
2019-03-30T06:06:27.721Z,4.00
2019-03-30T06:08:59.011Z,4.20
2019-03-30T06:11:30.260Z,4.30
2019-03-30T06:14:01.595Z,4.40
2019-03-30T06:16:32.763Z,4.40
2019-03-30T06:19:04.175Z,4.50
2019-03-30T06:21:35.654Z,4.70
2019-03-30T06:24:07.073Z,5.00
2019-03-30T06:26:38.479Z,5.20
2019-03-30T06:29:09.782Z,5.40
2019-03-30T06:31:40.986Z,5.60
2019-03-30T06:34:12.335Z,5.90
2019-03-30T06:36:43.627Z,6.10
2019-03-30T06:39:14.976Z,6.40
2019-03-30T06:41:46.126Z,6.70
2019-03-30T06:44:18.487Z,7.00
2019-03-30T06:46:49.866Z,7.30
2019-03-30T06:49:21.163Z,7.60
2019-03-30T06:51:52.455Z,7.90
2019-03-30T06:54:23.761Z,8.10
2019-03-30T06:56:54.996Z,8.50
2019-03-30T06:59:26.339Z,8.80
2019-03-30T07:01:57.623Z,9.10
2019-03-30T07:04:28.934Z,9.30
2019-03-30T07:07:00.317Z,9.60
2019-03-30T07:09:31.783Z,10.00
2019-03-30T07:12:03.053Z,10.20
2019-03-30T07:14:34.761Z,10.50
2019-03-30T07:17:06.024Z,10.80
2019-03-30T07:19:37.495Z,11.10
2019-03-30T07:22:08.717Z,11.30
2019-03-30T07:24:39.946Z,11.60
2019-03-30T07:27:11.246Z,11.80
2019-03-30T07:29:42.506Z,12.10
2019-03-30T07:32:13.804Z,12.40
2019-03-30T07:34:45.203Z,12.70
2019-03-30T07:37:16.514Z,12.90
2019-03-30T07:39:47.932Z,13.20
2019-03-30T07:42:19.192Z,13.60
2019-03-30T07:44:50.528Z,13.90
2019-03-30T07:47:22.920Z,14.30
2019-03-30T07:49:54.185Z,14.40
2019-03-30T07:52:25.607Z,14.60
2019-03-30T07:54:58.014Z,14.80
2019-03-30T07:57:30.375Z,15.20
2019-03-30T08:00:01.840Z,15.40
2019-03-30T08:02:34.072Z,15.70
2019-03-30T08:05:05.496Z,15.80
2019-03-30T08:07:36.879Z,15.60
2019-03-30T08:10:08.160Z,16.00
2019-03-30T08:12:39.368Z,16.20
2019-03-30T08:15:10.811Z,16.50
2019-03-30T08:17:43.062Z,16.50
2019-03-30T08:20:14.402Z,16.90
2019-03-30T08:22:45.877Z,16.90
2019-03-30T08:25:17.264Z,17.20
2019-03-30T08:27:48.595Z,17.50
2019-03-30T08:30:19.948Z,17.70
2019-03-30T08:32:51.390Z,17.90
2019-03-30T08:35:22.692Z,17.90
2019-03-30T08:37:53.956Z,18.00
2019-03-30T08:40:25.261Z,18.10
2019-03-30T08:42:56.503Z,18.30
2019-03-30T08:45:27.856Z,18.60
2019-03-30T08:47:59.243Z,18.90
2019-03-30T08:50:30.653Z,19.10
2019-03-30T08:53:01.988Z,19.30
2019-03-30T08:55:33.335Z,19.20
2019-03-30T08:58:04.657Z,19.70
2019-03-30T09:04:12.529Z,20.20
2019-03-30T09:06:43.763Z,19.80
2019-03-30T09:09:15.054Z,19.70
2019-03-30T09:11:46.462Z,20.20
2019-03-30T09:14:17.669Z,20.10
2019-03-30T09:16:48.934Z,20.70
2019-03-30T09:19:20.253Z,20.40
2019-03-30T09:21:51.642Z,21.00
2019-03-30T09:24:23.038Z,21.10
2019-03-30T09:26:54.324Z,21.20
2019-03-30T09:29:25.631Z,21.60
2019-03-30T09:31:56.926Z,22.00
2019-03-30T09:34:28.220Z,22.20
2019-03-30T09:36:59.436Z,22.10
2019-03-30T09:39:30.629Z,22.40
2019-03-30T09:42:01.928Z,22.40
2019-03-30T09:44:33.329Z,22.90
2019-03-30T09:47:04.638Z,22.80
2019-03-30T09:49:36.110Z,23.10
2019-03-30T09:52:07.381Z,23.40
2019-03-30T09:54:38.904Z,23.50
2019-03-30T09:57:10.216Z,23.60
2019-03-30T09:59:41.423Z,23.70
2019-03-30T10:02:12.815Z,23.60
2019-03-30T10:04:44.300Z,24.00
2019-03-30T10:07:15.603Z,23.80
2019-03-30T10:09:47.392Z,24.00
2019-03-30T10:12:19.039Z,23.80
2019-03-30T10:14:50.348Z,23.90
2019-03-30T10:17:21.733Z,23.90
2019-03-30T10:20:03.698Z,23.90
2019-03-30T10:22:25.998Z,23.30
2019-03-30T10:24:58.496Z,23.60
2019-03-30T10:27:30.069Z,23.90
2019-03-30T10:30:01.354Z,24.00
2019-03-30T10:32:32.751Z,24.40
2019-03-30T10:35:04.003Z,24.20
2019-03-30T10:37:35.254Z,23.30
2019-03-30T10:40:07.150Z,22.90
2019-03-30T10:42:39.366Z,23.60
2019-03-30T10:45:10.613Z,24.00
2019-03-30T10:47:42.081Z,24.30
2019-03-30T10:50:13.687Z,24.40
2019-03-30T10:52:44.962Z,24.70
2019-03-30T10:55:22.116Z,24.70
2019-03-30T10:57:53.417Z,24.90
2019-03-30T11:00:39.143Z,25.10
2019-03-30T11:03:10.554Z,25.20
2019-03-30T11:05:41.761Z,25.10
2019-03-30T11:08:13.024Z,25.10
2019-03-30T11:10:44.328Z,25.10
2019-03-30T11:13:15.624Z,25.50
2019-03-30T11:15:46.929Z,25.30
2019-03-30T11:18:18.224Z,25.30
2019-03-30T11:20:49.437Z,25.30
2019-03-30T11:23:20.589Z,25.50
2019-03-30T11:25:51.844Z,25.60
2019-03-30T11:28:23.217Z,25.40
2019-03-30T11:30:55.570Z,25.30
2019-03-30T11:33:26.962Z,25.50
2019-03-30T11:35:58.316Z,25.70
2019-03-30T11:38:29.697Z,25.70
2019-03-30T11:41:01.019Z,25.40
2019-03-30T11:43:32.415Z,25.20
2019-03-30T11:46:03.689Z,24.90
2019-03-30T11:48:37.447Z,25.10
2019-03-30T11:51:08.019Z,24.50
2019-03-30T11:53:39.332Z,24.70
2019-03-30T11:56:10.625Z,24.90
2019-03-30T11:58:42.026Z,25.20
2019-03-30T12:01:13.320Z,25.20
2019-03-30T12:03:44.725Z,25.30
2019-03-30T12:06:16.056Z,25.40
2019-03-30T12:08:47.540Z,25.40
2019-03-30T12:11:18.649Z,25.60
2019-03-30T12:13:50.290Z,25.50
2019-03-30T12:16:21.518Z,24.90
2019-03-30T12:18:52.820Z,24.30
2019-03-30T12:21:24.123Z,24.20
2019-03-30T12:23:55.304Z,24.60
2019-03-30T12:26:26.505Z,24.40
2019-03-30T12:28:57.890Z,24.20
2019-03-30T12:31:29.095Z,24.40
2019-03-30T12:34:00.496Z,23.80
2019-03-30T12:36:33.022Z,24.00
2019-03-30T12:39:04.653Z,23.80
2019-03-30T12:41:36.029Z,23.80
2019-03-30T12:44:07.523Z,23.30
2019-03-30T12:46:38.852Z,23.70
2019-03-30T12:49:10.508Z,23.90
2019-03-30T12:51:41.936Z,23.60
2019-03-30T12:54:14.240Z,23.80
2019-03-30T12:56:45.521Z,23.90
2019-03-30T12:59:16.667Z,23.00
2019-03-30T13:01:47.960Z,23.20
2019-03-30T13:04:19.336Z,23.60
2019-03-30T13:06:50.607Z,23.50
2019-03-30T13:09:21.939Z,23.00
2019-03-30T13:11:53.224Z,22.50
2019-03-30T13:14:24.522Z,22.90
2019-03-30T13:16:55.806Z,23.20
2019-03-30T13:19:27.242Z,23.10
2019-03-30T13:21:59.616Z,22.90
2019-03-30T13:24:30.926Z,23.20
2019-03-30T13:27:02.025Z,23.00
2019-03-30T13:29:33.053Z,23.20
2019-03-30T13:32:04.223Z,23.10
2019-03-30T13:34:35.664Z,22.80
2019-03-30T13:37:16.504Z,22.90
2019-03-30T13:39:47.740Z,22.90
2019-03-30T13:42:18.946Z,22.70
2019-03-30T13:44:50.214Z,22.80
2019-03-30T13:47:21.617Z,22.10
2019-03-30T13:49:53.930Z,22.60
2019-03-30T13:52:25.341Z,22.90
2019-03-30T13:54:56.778Z,22.80
2019-03-30T13:57:27.939Z,22.90
2019-03-30T13:59:59.357Z,22.80
2019-03-30T14:02:30.737Z,23.20
2019-03-30T14:05:02.039Z,22.50
2019-03-30T14:07:33.316Z,22.70
2019-03-30T14:10:04.852Z,23.10
2019-03-30T14:12:37.140Z,23.00
2019-03-30T14:15:09.492Z,22.90
2019-03-30T14:17:40.980Z,22.30
2019-03-30T14:20:12.154Z,22.30
2019-03-30T14:22:43.546Z,21.80
2019-03-30T14:25:14.755Z,22.00
2019-03-30T14:27:46.252Z,22.00
2019-03-30T14:30:17.676Z,21.70
2019-03-30T14:32:48.864Z,21.30
2019-03-30T14:35:20.073Z,21.30
2019-03-30T14:37:51.322Z,21.30
2019-03-30T14:40:22.481Z,21.50
2019-03-30T14:42:53.762Z,21.60
2019-03-30T14:45:25.082Z,20.80
2019-03-30T14:47:58.109Z,20.50
2019-03-30T14:50:29.508Z,20.30
2019-03-30T14:53:00.896Z,20.10
2019-03-30T14:55:32.092Z,20.30
2019-03-30T14:58:03.437Z,20.20
2019-03-30T15:00:34.731Z,20.10
2019-03-30T15:03:06.197Z,20.20
2019-03-30T15:05:37.484Z,20.20
2019-03-30T15:08:08.823Z,20.00
2019-03-30T15:10:40.018Z,20.10
2019-03-30T15:13:11.592Z,20.20
2019-03-30T15:15:43.814Z,20.30
2019-03-30T15:18:15.004Z,20.40
2019-03-30T15:20:46.237Z,20.30
2019-03-30T15:23:17.617Z,20.50
2019-03-30T15:25:48.768Z,20.40
2019-03-30T15:28:20.000Z,20.50
2019-03-30T15:30:51.166Z,21.00
2019-03-30T15:33:22.454Z,21.40
2019-03-30T15:35:53.805Z,21.60
2019-03-30T15:38:25.177Z,21.70
2019-03-30T15:40:56.498Z,21.80
2019-03-30T15:43:38.259Z,21.60
2019-03-30T15:46:00.726Z,21.90
2019-03-30T15:48:31.870Z,21.50
2019-03-30T15:51:03.011Z,21.30
2019-03-30T15:53:34.467Z,20.90
2019-03-30T15:56:05.784Z,20.30
2019-03-30T15:58:38.084Z,20.10
2019-03-30T16:01:09.301Z,19.80
2019-03-30T16:03:40.695Z,19.80
2019-03-30T16:06:13.543Z,19.90
2019-03-30T16:08:44.926Z,19.30
2019-03-30T16:11:16.339Z,19.50
2019-03-30T16:13:47.826Z,19.40
2019-03-30T16:16:19.129Z,19.40
2019-03-30T16:18:50.554Z,19.10
2019-03-30T16:21:21.711Z,18.80
2019-03-30T16:23:53.124Z,18.80
2019-03-30T16:26:24.308Z,18.90
2019-03-30T16:28:55.643Z,18.70
2019-03-30T16:31:26.803Z,18.60
2019-03-30T16:33:58.106Z,18.40
2019-03-30T16:36:29.402Z,18.30
2019-03-30T16:39:00.723Z,18.30
2019-03-30T16:41:32.992Z,18.20
2019-03-30T16:44:04.406Z,18.10
2019-03-30T16:46:35.556Z,18.10
2019-03-30T16:49:06.809Z,18.10
2019-03-30T16:51:39.053Z,18.00
2019-03-30T16:54:10.456Z,17.90
2019-03-30T16:56:41.840Z,17.80
2019-03-30T16:59:13.990Z,17.80
2019-03-30T17:01:45.272Z,17.70
2019-03-30T17:04:16.725Z,17.60
2019-03-30T17:06:47.954Z,17.40
2019-03-30T17:09:19.317Z,17.20
2019-03-30T17:11:50.712Z,17.10
2019-03-30T17:14:22.116Z,17.00
2019-03-30T17:16:53.446Z,16.90
2019-03-30T17:19:24.848Z,16.80
2019-03-30T17:21:56.018Z,16.70
2019-03-30T17:24:27.303Z,16.60
2019-03-30T17:26:58.728Z,16.50
2019-03-30T17:29:30.138Z,16.40
2019-03-30T17:32:01.665Z,16.30
2019-03-30T17:34:33.314Z,16.10
2019-03-30T17:37:04.508Z,16.00
2019-03-30T17:39:35.600Z,15.90
2019-03-30T17:42:06.933Z,15.70
2019-03-30T17:44:38.184Z,15.50
2019-03-30T17:47:09.510Z,15.40
2019-03-30T17:49:40.891Z,15.20
2019-03-30T17:52:12.112Z,15.20
2019-03-30T17:54:43.498Z,15.10
2019-03-30T17:57:17.521Z,15.00
2019-03-30T17:59:47.830Z,14.80
2019-03-30T18:02:19.307Z,14.60
2019-03-30T18:04:52.269Z,14.40
2019-03-30T18:07:23.550Z,14.30
2019-03-30T18:09:54.789Z,14.20
2019-03-30T18:12:46.398Z,14.20
2019-03-30T18:54:00.391Z,12.20
2019-03-30T19:07:56.852Z,11.80
2019-03-30T19:10:47.089Z,11.80
2019-03-30T19:13:18.390Z,11.70
2019-03-30T19:15:49.736Z,11.70
2019-03-30T19:18:20.958Z,11.60
2019-03-30T19:20:52.329Z,11.60
2019-03-30T19:23:23.681Z,11.60
2019-03-30T19:25:55.044Z,11.50
2019-03-30T19:28:26.320Z,11.50
2019-03-30T19:30:57.754Z,11.40
2019-03-30T19:33:29.139Z,11.30
2019-03-30T19:36:00.478Z,11.20
2019-03-30T19:38:31.844Z,11.00
2019-03-30T19:41:03.217Z,11.00
2019-03-30T19:43:34.507Z,10.90
2019-03-30T19:46:05.960Z,10.80
2019-03-30T20:29:24.422Z,10.50
2019-03-30T21:15:42.476Z,10.50
2019-03-30T21:18:13.738Z,10.40
2019-03-30T21:20:45.106Z,10.40
2019-03-30T21:23:16.430Z,10.30
2019-03-30T21:25:47.702Z,10.30
2019-03-30T21:28:18.892Z,10.30
2019-03-30T21:30:50.174Z,10.20
2019-03-30T21:33:21.515Z,10.20
2019-03-30T21:35:52.835Z,10.20
2019-03-30T21:38:24.587Z,10.10
2019-03-30T21:40:55.981Z,10.10
2019-03-30T21:43:27.164Z,10.10
2019-03-30T21:45:58.487Z,10.10
2019-03-30T21:48:29.867Z,10.10
2019-03-30T21:51:01.160Z,10.10
2019-03-30T21:53:32.557Z,10.10
2019-03-30T21:56:03.896Z,10.00
2019-03-30T21:58:35.365Z,10.00
2019-03-30T22:01:06.701Z,10.10
2019-03-30T22:03:38.173Z,10.10
2019-03-30T22:06:09.471Z,10.10
2019-03-30T22:08:40.980Z,10.10
2019-03-30T22:11:12.279Z,10.20
2019-03-30T22:13:43.681Z,10.30
2019-03-30T22:16:14.799Z,10.20
2019-03-30T22:18:46.078Z,10.30
2019-03-30T22:21:17.377Z,10.30
2019-03-30T22:23:48.573Z,10.30
2019-03-30T22:26:20.182Z,10.20
2019-03-30T22:28:51.531Z,10.20
2019-03-30T22:31:22.846Z,10.10
2019-03-30T22:33:54.131Z,10.10
2019-03-30T22:36:25.444Z,10.10
2019-03-30T22:38:56.663Z,10.10
2019-03-30T22:41:27.834Z,10.10
2019-03-30T22:43:59.222Z,10.10
2019-03-30T22:46:30.546Z,10.10
2019-03-30T22:49:01.961Z,10.00
2019-03-30T22:51:33.357Z,10.00
2019-03-30T22:54:04.703Z,10.10
2019-03-30T22:56:35.914Z,10.00
2019-03-30T22:59:07.314Z,10.00
2019-03-30T23:01:38.706Z,10.00
2019-03-30T23:04:09.903Z,9.90
2019-03-30T23:06:41.206Z,9.90
2019-03-30T23:09:12.484Z,9.80
2019-03-30T23:11:43.900Z,9.80
2019-03-30T23:14:15.215Z,9.70
2019-03-30T23:16:46.692Z,9.70
2019-03-30T23:19:18.090Z,9.70
2019-03-30T23:21:49.484Z,9.60
2019-03-30T23:24:20.679Z,9.60
2019-03-30T23:26:51.991Z,9.60
2019-03-30T23:29:23.366Z,9.60
2019-03-30T23:31:54.731Z,9.50
2019-03-30T23:34:26.098Z,9.50
2019-03-30T23:36:57.574Z,9.40
2019-03-30T23:39:28.902Z,9.40
2019-03-30T23:42:00.097Z,9.40
2019-03-30T23:44:31.497Z,9.30
2019-03-30T23:47:02.799Z,9.30
2019-03-30T23:49:34.188Z,9.20
2019-03-30T23:52:05.487Z,9.20
2019-03-30T23:54:36.979Z,9.20
2019-03-30T23:57:08.284Z,9.10
2019-03-30T23:59:39.695Z,9.10
